sensor_id;sensor_type;location;lat;lon;timestamp;P1;durP1;ratioP1;P2;durP2;ratioP2
24357;SDS011;13668;52.154;5.580;2023-08-21T00:02:08;2.97;;;1.45;;
24357;SDS011;13668;52.154;5.580;2023-08-21T00:04:34;2.67;;;1.13;;
24357;SDS011;13668;52.154;5.580;2023-08-21T00:07:00;1.75;;;1.52;;
24357;SDS011;13668;52.154;5.580;2023-08-21T00:09:26;1.77;;;1.23;;
24357;SDS011;13668;52.154;5.580;2023-08-21T00:11:52;3.78;;;1.73;;
24357;SDS011;13668;52.154;5.580;2023-08-21T00:14:18;1.38;;;1.27;;
24357;SDS011;13668;52.154;5.580;2023-08-21T00:16:44;4.93;;;1.73;;
24357;SDS011;13668;52.154;5.580;2023-08-21T00:19:10;1.65;;;1.23;;
24357;SDS011;13668;52.154;5.580;2023-08-21T00:21:36;4.63;;;1.83;;
24357;SDS011;13668;52.154;5.580;2023-08-21T00:24:02;1.85;;;1.40;;
24357;SDS011;13668;52.154;5.580;2023-08-21T00:26:28;3.42;;;1.80;;
24357;SDS011;13668;52.154;5.580;2023-08-21T00:28:54;2.42;;;1.58;;
24357;SDS011;13668;52.154;5.580;2023-08-21T00:31:20;1.63;;;1.30;;
24357;SDS011;13668;52.154;5.580;2023-08-21T00:33:46;3.10;;;1.23;;
24357;SDS011;13668;52.154;5.580;2023-08-21T00:36:12;2.83;;;1.48;;
24357;SDS011;13668;52.154;5.580;2023-08-21T00:38:38;3.85;;;1.15;;
24357;SDS011;13668;52.154;5.580;2023-08-21T00:41:05;3.70;;;1.67;;
24357;SDS011;13668;52.154;5.580;2023-08-21T00:43:31;2.25;;;1.38;;
24357;SDS011;13668;52.154;5.580;2023-08-21T00:45:57;1.88;;;1.35;;
24357;SDS011;13668;52.154;5.580;2023-08-21T00:48:23;1.27;;;1.17;;
24357;SDS011;13668;52.154;5.580;2023-08-21T00:50:49;1.55;;;1.17;;
24357;SDS011;13668;52.154;5.580;2023-08-21T00:53:15;2.50;;;1.25;;
24357;SDS011;13668;52.154;5.580;2023-08-21T00:55:41;1.83;;;1.45;;
24357;SDS011;13668;52.154;5.580;2023-08-21T00:58:08;2.58;;;1.50;;
24357;SDS011;13668;52.154;5.580;2023-08-21T01:00:34;3.05;;;1.40;;
24357;SDS011;13668;52.154;5.580;2023-08-21T01:03:01;2.42;;;1.70;;
24357;SDS011;13668;52.154;5.580;2023-08-21T01:05:27;2.63;;;1.25;;
24357;SDS011;13668;52.154;5.580;2023-08-21T01:07:56;2.20;;;1.83;;
24357;SDS011;13668;52.154;5.580;2023-08-21T01:10:33;2.67;;;1.65;;
24357;SDS011;13668;52.154;5.580;2023-08-21T01:13:06;1.77;;;1.65;;
24357;SDS011;13668;52.154;5.580;2023-08-21T01:15:36;1.90;;;1.65;;
24357;SDS011;13668;52.154;5.580;2023-08-21T01:18:02;1.63;;;1.52;;
24357;SDS011;13668;52.154;5.580;2023-08-21T01:20:28;2.90;;;1.98;;
24357;SDS011;13668;52.154;5.580;2023-08-21T01:22:54;3.13;;;2.08;;
24357;SDS011;13668;52.154;5.580;2023-08-21T01:25:20;5.30;;;2.13;;
24357;SDS011;13668;52.154;5.580;2023-08-21T01:27:48;3.03;;;2.55;;
24357;SDS011;13668;52.154;5.580;2023-08-21T01:30:14;2.50;;;1.90;;
24357;SDS011;13668;52.154;5.580;2023-08-21T01:35:07;3.40;;;2.17;;
24357;SDS011;13668;52.154;5.580;2023-08-21T01:37:33;2.42;;;2.22;;
24357;SDS011;13668;52.154;5.580;2023-08-21T01:39:59;2.80;;;1.98;;
24357;SDS011;13668;52.154;5.580;2023-08-21T01:42:25;3.15;;;2.35;;
24357;SDS011;13668;52.154;5.580;2023-08-21T01:44:51;2.75;;;2.00;;
24357;SDS011;13668;52.154;5.580;2023-08-21T01:47:17;3.83;;;2.75;;
24357;SDS011;13668;52.154;5.580;2023-08-21T01:49:43;2.75;;;2.28;;
24357;SDS011;13668;52.154;5.580;2023-08-21T01:52:09;2.63;;;2.42;;
24357;SDS011;13668;52.154;5.580;2023-08-21T01:54:35;4.32;;;2.28;;
24357;SDS011;13668;52.154;5.580;2023-08-21T01:57:01;2.95;;;2.10;;
24357;SDS011;13668;52.154;5.580;2023-08-21T01:59:28;2.55;;;2.05;;
24357;SDS011;13668;52.154;5.580;2023-08-21T02:01:54;2.58;;;1.77;;
24357;SDS011;13668;52.154;5.580;2023-08-21T02:04:20;2.05;;;1.92;;
24357;SDS011;13668;52.154;5.580;2023-08-21T02:06:46;2.70;;;2.13;;
24357;SDS011;13668;52.154;5.580;2023-08-21T02:09:12;2.30;;;2.10;;
24357;SDS011;13668;52.154;5.580;2023-08-21T02:11:38;2.63;;;2.42;;
24357;SDS011;13668;52.154;5.580;2023-08-21T02:14:04;2.67;;;2.03;;
24357;SDS011;13668;52.154;5.580;2023-08-21T02:16:30;2.30;;;2.10;;
24357;SDS011;13668;52.154;5.580;2023-08-21T02:18:56;3.05;;;2.53;;
24357;SDS011;13668;52.154;5.580;2023-08-21T02:21:22;4.43;;;2.40;;
24357;SDS011;13668;52.154;5.580;2023-08-21T02:23:48;2.33;;;2.13;;
24357;SDS011;13668;52.154;5.580;2023-08-21T02:26:14;3.75;;;2.55;;
24357;SDS011;13668;52.154;5.580;2023-08-21T02:28:41;3.10;;;2.80;;
24357;SDS011;13668;52.154;5.580;2023-08-21T02:31:09;2.83;;;2.58;;
24357;SDS011;13668;52.154;5.580;2023-08-21T02:33:35;2.28;;;2.03;;
24357;SDS011;13668;52.154;5.580;2023-08-21T02:36:01;2.63;;;2.25;;
24357;SDS011;13668;52.154;5.580;2023-08-21T02:38:28;2.78;;;2.00;;
24357;SDS011;13668;52.154;5.580;2023-08-21T02:40:54;5.85;;;2.30;;
24357;SDS011;13668;52.154;5.580;2023-08-21T02:43:20;2.92;;;2.00;;
24357;SDS011;13668;52.154;5.580;2023-08-21T02:45:46;3.38;;;2.38;;
24357;SDS011;13668;52.154;5.580;2023-08-21T02:48:12;3.28;;;2.17;;
24357;SDS011;13668;52.154;5.580;2023-08-21T02:50:38;2.85;;;2.47;;
24357;SDS011;13668;52.154;5.580;2023-08-21T02:53:04;3.20;;;2.40;;
24357;SDS011;13668;52.154;5.580;2023-08-21T02:55:31;2.75;;;2.55;;
24357;SDS011;13668;52.154;5.580;2023-08-21T02:57:57;5.72;;;2.35;;
24357;SDS011;13668;52.154;5.580;2023-08-21T03:00:23;2.72;;;2.33;;
24357;SDS011;13668;52.154;5.580;2023-08-21T03:02:49;2.65;;;2.25;;
24357;SDS011;13668;52.154;5.580;2023-08-21T03:05:15;2.20;;;1.88;;
24357;SDS011;13668;52.154;5.580;2023-08-21T03:07:41;5.40;;;2.58;;
24357;SDS011;13668;52.154;5.580;2023-08-21T03:10:07;3.22;;;2.28;;
24357;SDS011;13668;52.154;5.580;2023-08-21T03:12:34;2.40;;;2.20;;
24357;SDS011;13668;52.154;5.580;2023-08-21T03:15:00;3.05;;;2.03;;
24357;SDS011;13668;52.154;5.580;2023-08-21T03:17:26;4.25;;;2.85;;
24357;SDS011;13668;52.154;5.580;2023-08-21T03:19:52;2.78;;;2.08;;
24357;SDS011;13668;52.154;5.580;2023-08-21T03:22:18;6.43;;;3.10;;
24357;SDS011;13668;52.154;5.580;2023-08-21T03:24:44;5.10;;;2.35;;
24357;SDS011;13668;52.154;5.580;2023-08-21T03:27:10;4.47;;;2.45;;
24357;SDS011;13668;52.154;5.580;2023-08-21T03:29:36;2.08;;;1.67;;
24357;SDS011;13668;52.154;5.580;2023-08-21T03:32:02;3.40;;;1.73;;
24357;SDS011;13668;52.154;5.580;2023-08-21T03:34:28;2.25;;;2.05;;
24357;SDS011;13668;52.154;5.580;2023-08-21T03:36:54;5.30;;;2.40;;
24357;SDS011;13668;52.154;5.580;2023-08-21T03:39:20;3.90;;;2.40;;
24357;SDS011;13668;52.154;5.580;2023-08-21T03:41:46;2.40;;;2.20;;
24357;SDS011;13668;52.154;5.580;2023-08-21T03:44:12;4.35;;;2.17;;
24357;SDS011;13668;52.154;5.580;2023-08-21T03:46:38;2.25;;;1.80;;
24357;SDS011;13668;52.154;5.580;2023-08-21T03:49:05;2.30;;;2.10;;
24357;SDS011;13668;52.154;5.580;2023-08-21T03:51:31;2.00;;;1.77;;
24357;SDS011;13668;52.154;5.580;2023-08-21T03:53:57;2.95;;;2.65;;
24357;SDS011;13668;52.154;5.580;2023-08-21T03:56:23;3.78;;;3.05;;
24357;SDS011;13668;52.154;5.580;2023-08-21T03:58:49;4.57;;;2.38;;
24357;SDS011;13668;52.154;5.580;2023-08-21T04:01:15;2.72;;;2.40;;
24357;SDS011;13668;52.154;5.580;2023-08-21T04:03:41;3.92;;;2.40;;
24357;SDS011;13668;52.154;5.580;2023-08-21T04:06:07;2.75;;;2.22;;
24357;SDS011;13668;52.154;5.580;2023-08-21T04:08:33;3.03;;;1.98;;
24357;SDS011;13668;52.154;5.580;2023-08-21T04:11:01;3.53;;;2.45;;
24357;SDS011;13668;52.154;5.580;2023-08-21T04:13:27;2.75;;;2.20;;
24357;SDS011;13668;52.154;5.580;2023-08-21T04:15:53;2.95;;;2.50;;
24357;SDS011;13668;52.154;5.580;2023-08-21T04:18:21;4.25;;;2.75;;
24357;SDS011;13668;52.154;5.580;2023-08-21T04:20:47;5.07;;;2.50;;
24357;SDS011;13668;52.154;5.580;2023-08-21T04:23:13;2.80;;;2.53;;
24357;SDS011;13668;52.154;5.580;2023-08-21T04:25:39;3.25;;;2.17;;
24357;SDS011;13668;52.154;5.580;2023-08-21T04:28:05;3.67;;;2.38;;
24357;SDS011;13668;52.154;5.580;2023-08-21T04:30:32;2.97;;;2.58;;
24357;SDS011;13668;52.154;5.580;2023-08-21T04:32:59;6.65;;;2.58;;
24357;SDS011;13668;52.154;5.580;2023-08-21T04:35:25;2.67;;;2.42;;
24357;SDS011;13668;52.154;5.580;2023-08-21T04:37:51;4.38;;;2.40;;
24357;SDS011;13668;52.154;5.580;2023-08-21T04:40:17;4.20;;;3.08;;
24357;SDS011;13668;52.154;5.580;2023-08-21T04:42:45;3.63;;;2.90;;
24357;SDS011;13668;52.154;5.580;2023-08-21T04:45:12;4.60;;;2.47;;
24357;SDS011;13668;52.154;5.580;2023-08-21T04:47:38;2.70;;;2.17;;
24357;SDS011;13668;52.154;5.580;2023-08-21T04:50:04;3.05;;;2.40;;
24357;SDS011;13668;52.154;5.580;2023-08-21T04:52:30;4.70;;;3.10;;
24357;SDS011;13668;52.154;5.580;2023-08-21T04:54:56;3.70;;;2.33;;
24357;SDS011;13668;52.154;5.580;2023-08-21T04:57:22;2.63;;;2.03;;
24357;SDS011;13668;52.154;5.580;2023-08-21T04:59:48;3.15;;;2.40;;
24357;SDS011;13668;52.154;5.580;2023-08-21T05:02:14;2.67;;;2.47;;
24357;SDS011;13668;52.154;5.580;2023-08-21T05:04:40;4.18;;;2.60;;
24357;SDS011;13668;52.154;5.580;2023-08-21T05:07:06;2.58;;;2.13;;
24357;SDS011;13668;52.154;5.580;2023-08-21T05:09:32;2.40;;;2.20;;
24357;SDS011;13668;52.154;5.580;2023-08-21T05:11:59;2.65;;;2.42;;
24357;SDS011;13668;52.154;5.580;2023-08-21T05:14:25;3.35;;;2.53;;
24357;SDS011;13668;52.154;5.580;2023-08-21T05:16:51;5.18;;;2.40;;
24357;SDS011;13668;52.154;5.580;2023-08-21T05:19:17;5.05;;;2.53;;
24357;SDS011;13668;52.154;5.580;2023-08-21T05:21:43;2.55;;;2.30;;
24357;SDS011;13668;52.154;5.580;2023-08-21T05:24:10;3.05;;;2.28;;
24357;SDS011;13668;52.154;5.580;2023-08-21T05:26:36;2.58;;;2.20;;
24357;SDS011;13668;52.154;5.580;2023-08-21T05:29:02;4.32;;;2.40;;
24357;SDS011;13668;52.154;5.580;2023-08-21T05:31:28;2.63;;;2.42;;
24357;SDS011;13668;52.154;5.580;2023-08-21T05:33:54;2.95;;;2.53;;
24357;SDS011;13668;52.154;5.580;2023-08-21T05:36:20;2.83;;;2.47;;
24357;SDS011;13668;52.154;5.580;2023-08-21T05:38:46;5.05;;;2.80;;
24357;SDS011;13668;52.154;5.580;2023-08-21T05:41:14;2.58;;;2.35;;
24357;SDS011;13668;52.154;5.580;2023-08-21T05:43:40;3.80;;;2.47;;
24357;SDS011;13668;52.154;5.580;2023-08-21T05:46:07;3.90;;;2.45;;
24357;SDS011;13668;52.154;5.580;2023-08-21T05:48:33;2.78;;;1.92;;
24357;SDS011;13668;52.154;5.580;2023-08-21T05:50:59;2.22;;;1.92;;
24357;SDS011;13668;52.154;5.580;2023-08-21T05:53:25;4.75;;;1.85;;
24357;SDS011;13668;52.154;5.580;2023-08-21T05:55:52;2.67;;;2.03;;
24357;SDS011;13668;52.154;5.580;2023-08-21T05:58:18;1.90;;;1.80;;
24357;SDS011;13668;52.154;5.580;2023-08-21T06:00:44;3.00;;;2.53;;
24357;SDS011;13668;52.154;5.580;2023-08-21T06:03:10;7.07;;;2.00;;
24357;SDS011;13668;52.154;5.580;2023-08-21T06:05:36;2.50;;;1.63;;
24357;SDS011;13668;52.154;5.580;2023-08-21T06:08:02;6.53;;;2.47;;
24357;SDS011;13668;52.154;5.580;2023-08-21T06:10:28;3.28;;;2.00;;
24357;SDS011;13668;52.154;5.580;2023-08-21T06:12:54;3.63;;;2.17;;
24357;SDS011;13668;52.154;5.580;2023-08-21T06:15:20;3.10;;;2.20;;
24357;SDS011;13668;52.154;5.580;2023-08-21T06:17:46;3.45;;;1.85;;
24357;SDS011;13668;52.154;5.580;2023-08-21T06:20:12;2.33;;;1.80;;
24357;SDS011;13668;52.154;5.580;2023-08-21T06:22:39;3.42;;;2.42;;
24357;SDS011;13668;52.154;5.580;2023-08-21T06:25:05;3.88;;;2.60;;
24357;SDS011;13668;52.154;5.580;2023-08-21T06:27:31;2.72;;;2.17;;
24357;SDS011;13668;52.154;5.580;2023-08-21T06:29:57;4.53;;;2.22;;
24357;SDS011;13668;52.154;5.580;2023-08-21T06:32:23;3.35;;;2.00;;
24357;SDS011;13668;52.154;5.580;2023-08-21T06:34:49;2.88;;;2.33;;
24357;SDS011;13668;52.154;5.580;2023-08-21T06:37:15;4.10;;;2.35;;
24357;SDS011;13668;52.154;5.580;2023-08-21T06:39:41;3.95;;;2.10;;
24357;SDS011;13668;52.154;5.580;2023-08-21T06:42:07;5.00;;;2.72;;
24357;SDS011;13668;52.154;5.580;2023-08-21T06:44:33;2.42;;;2.00;;
24357;SDS011;13668;52.154;5.580;2023-08-21T06:46:59;3.05;;;1.95;;
24357;SDS011;13668;52.154;5.580;2023-08-21T06:49:26;2.38;;;2.03;;
24357;SDS011;13668;52.154;5.580;2023-08-21T06:51:52;3.30;;;1.92;;
24357;SDS011;13668;52.154;5.580;2023-08-21T06:54:18;3.00;;;1.52;;
24357;SDS011;13668;52.154;5.580;2023-08-21T06:56:44;4.85;;;2.15;;
24357;SDS011;13668;52.154;5.580;2023-08-21T06:59:10;2.80;;;1.70;;
24357;SDS011;13668;52.154;5.580;2023-08-21T07:01:36;8.98;;;2.45;;
24357;SDS011;13668;52.154;5.580;2023-08-21T07:04:02;3.40;;;2.13;;
24357;SDS011;13668;52.154;5.580;2023-08-21T07:06:28;1.65;;;1.48;;
24357;SDS011;13668;52.154;5.580;2023-08-21T07:08:54;3.78;;;1.73;;
24357;SDS011;13668;52.154;5.580;2023-08-21T07:11:20;3.45;;;1.30;;
24357;SDS011;13668;52.154;5.580;2023-08-21T07:13:46;3.25;;;1.50;;
24357;SDS011;13668;52.154;5.580;2023-08-21T07:16:12;1.63;;;1.30;;
24357;SDS011;13668;52.154;5.580;2023-08-21T07:18:38;3.72;;;1.35;;
24357;SDS011;13668;52.154;5.580;2023-08-21T07:21:04;2.88;;;1.17;;
24357;SDS011;13668;52.154;5.580;2023-08-21T07:23:30;1.88;;;1.48;;
24357;SDS011;13668;52.154;5.580;2023-08-21T07:25:57;1.95;;;1.05;;
24357;SDS011;13668;52.154;5.580;2023-08-21T07:28:23;3.85;;;1.30;;
24357;SDS011;13668;52.154;5.580;2023-08-21T07:30:56;5.70;;;1.90;;
24357;SDS011;13668;52.154;5.580;2023-08-21T07:33:22;2.10;;;1.63;;
24357;SDS011;13668;52.154;5.580;2023-08-21T07:35:56;2.65;;;1.20;;
24357;SDS011;13668;52.154;5.580;2023-08-21T07:38:22;3.50;;;1.10;;
24357;SDS011;13668;52.154;5.580;2023-08-21T07:40:51;1.33;;;0.75;;
24357;SDS011;13668;52.154;5.580;2023-08-21T07:43:17;1.90;;;1.55;;
24357;SDS011;13668;52.154;5.580;2023-08-21T07:45:43;1.83;;;0.80;;
24357;SDS011;13668;52.154;5.580;2023-08-21T07:48:09;2.70;;;0.98;;
24357;SDS011;13668;52.154;5.580;2023-08-21T07:50:35;4.65;;;1.55;;
24357;SDS011;13668;52.154;5.580;2023-08-21T07:53:01;1.65;;;0.98;;
24357;SDS011;13668;52.154;5.580;2023-08-21T07:55:27;1.40;;;1.00;;
24357;SDS011;13668;52.154;5.580;2023-08-21T07:57:53;2.47;;;0.90;;
24357;SDS011;13668;52.154;5.580;2023-08-21T08:00:22;3.65;;;1.00;;
24357;SDS011;13668;52.154;5.580;2023-08-21T08:02:48;2.42;;;1.02;;
24357;SDS011;13668;52.154;5.580;2023-08-21T08:05:14;1.42;;;0.95;;
24357;SDS011;13668;52.154;5.580;2023-08-21T08:07:40;2.67;;;1.10;;
24357;SDS011;13668;52.154;5.580;2023-08-21T08:10:06;1.17;;;0.90;;
24357;SDS011;13668;52.154;5.580;2023-08-21T08:12:32;1.25;;;0.85;;
24357;SDS011;13668;52.154;5.580;2023-08-21T08:14:58;2.05;;;0.93;;
24357;SDS011;13668;52.154;5.580;2023-08-21T08:17:24;1.52;;;0.70;;
24357;SDS011;13668;52.154;5.580;2023-08-21T08:19:50;1.30;;;0.98;;
24357;SDS011;13668;52.154;5.580;2023-08-21T08:22:16;2.28;;;1.08;;
24357;SDS011;13668;52.154;5.580;2023-08-21T08:24:42;1.30;;;0.88;;
24357;SDS011;13668;52.154;5.580;2023-08-21T08:27:08;1.95;;;0.80;;
24357;SDS011;13668;52.154;5.580;2023-08-21T08:29:35;2.15;;;0.90;;
24357;SDS011;13668;52.154;5.580;2023-08-21T08:32:01;4.68;;;1.13;;
24357;SDS011;13668;52.154;5.580;2023-08-21T08:34:27;2.05;;;1.33;;
24357;SDS011;13668;52.154;5.580;2023-08-21T08:36:53;3.67;;;0.57;;
24357;SDS011;13668;52.154;5.580;2023-08-21T08:39:20;1.52;;;1.30;;
24357;SDS011;13668;52.154;5.580;2023-08-21T08:42:00;2.35;;;0.93;;
24357;SDS011;13668;52.154;5.580;2023-08-21T08:44:28;5.32;;;0.75;;
24357;SDS011;13668;52.154;5.580;2023-08-21T08:46:55;1.60;;;0.93;;
24357;SDS011;13668;52.154;5.580;2023-08-21T08:49:27;2.63;;;0.60;;
24357;SDS011;13668;52.154;5.580;2023-08-21T08:51:54;1.83;;;1.13;;
24357;SDS011;13668;52.154;5.580;2023-08-21T08:54:21;1.85;;;0.50;;
24357;SDS011;13668;52.154;5.580;2023-08-21T08:56:47;5.22;;;0.95;;
24357;SDS011;13668;52.154;5.580;2023-08-21T08:59:13;2.40;;;0.75;;
24357;SDS011;13668;52.154;5.580;2023-08-21T09:01:40;2.08;;;0.68;;
24357;SDS011;13668;52.154;5.580;2023-08-21T09:04:06;0.70;;;0.60;;
24357;SDS011;13668;52.154;5.580;2023-08-21T09:06:36;3.83;;;0.63;;
24357;SDS011;13668;52.154;5.580;2023-08-21T09:09:02;2.40;;;1.15;;
24357;SDS011;13668;52.154;5.580;2023-08-21T09:11:29;2.20;;;0.82;;
24357;SDS011;13668;52.154;5.580;2023-08-21T09:13:55;0.75;;;0.57;;
24357;SDS011;13668;52.154;5.580;2023-08-21T09:16:21;2.58;;;0.60;;
24357;SDS011;13668;52.154;5.580;2023-08-21T09:18:51;1.55;;;0.85;;
24357;SDS011;13668;52.154;5.580;2023-08-21T09:21:19;3.30;;;1.33;;
24357;SDS011;13668;52.154;5.580;2023-08-21T09:23:45;3.30;;;0.98;;
24357;SDS011;13668;52.154;5.580;2023-08-21T09:26:18;2.95;;;1.00;;
24357;SDS011;13668;52.154;5.580;2023-08-21T09:28:45;2.50;;;0.65;;
24357;SDS011;13668;52.154;5.580;2023-08-21T09:31:11;1.13;;;0.77;;
24357;SDS011;13668;52.154;5.580;2023-08-21T09:33:37;1.08;;;0.80;;
24357;SDS011;13668;52.154;5.580;2023-08-21T09:36:03;1.90;;;0.57;;
24357;SDS011;13668;52.154;5.580;2023-08-21T09:38:30;1.73;;;0.88;;
24357;SDS011;13668;52.154;5.580;2023-08-21T09:40:56;2.05;;;0.80;;
24357;SDS011;13668;52.154;5.580;2023-08-21T09:43:22;1.73;;;0.68;;
24357;SDS011;13668;52.154;5.580;2023-08-21T09:45:49;2.40;;;0.70;;
24357;SDS011;13668;52.154;5.580;2023-08-21T09:48:18;1.60;;;0.88;;
24357;SDS011;13668;52.154;5.580;2023-08-21T09:50:46;1.63;;;1.08;;
24357;SDS011;13668;52.154;5.580;2023-08-21T09:53:12;0.63;;;0.60;;
24357;SDS011;13668;52.154;5.580;2023-08-21T09:55:38;0.50;;;0.30;;
24357;SDS011;13668;52.154;5.580;2023-08-21T09:58:05;1.73;;;0.57;;
24357;SDS011;13668;52.154;5.580;2023-08-21T10:00:35;1.83;;;0.40;;
24357;SDS011;13668;52.154;5.580;2023-08-21T10:03:02;0.50;;;0.28;;
24357;SDS011;13668;52.154;5.580;2023-08-21T10:05:32;2.35;;;0.55;;
24357;SDS011;13668;52.154;5.580;2023-08-21T10:08:00;0.85;;;0.40;;
24357;SDS011;13668;52.154;5.580;2023-08-21T10:10:28;1.13;;;0.73;;
24357;SDS011;13668;52.154;5.580;2023-08-21T10:12:55;2.38;;;0.73;;
24357;SDS011;13668;52.154;5.580;2023-08-21T10:15:21;3.92;;;0.52;;
24357;SDS011;13668;52.154;5.580;2023-08-21T10:17:47;1.48;;;0.90;;
24357;SDS011;13668;52.154;5.580;2023-08-21T10:20:14;1.23;;;0.60;;
24357;SDS011;13668;52.154;5.580;2023-08-21T10:22:51;2.53;;;0.90;;
24357;SDS011;13668;52.154;5.580;2023-08-21T10:25:19;1.70;;;0.90;;
24357;SDS011;13668;52.154;5.580;2023-08-21T10:27:48;3.80;;;0.70;;
24357;SDS011;13668;52.154;5.580;2023-08-21T10:30:15;2.92;;;0.80;;
24357;SDS011;13668;52.154;5.580;2023-08-21T10:32:45;0.75;;;0.75;;
24357;SDS011;13668;52.154;5.580;2023-08-21T10:35:15;1.55;;;0.82;;
24357;SDS011;13668;52.154;5.580;2023-08-21T10:40:26;1.48;;;0.60;;
24357;SDS011;13668;52.154;5.580;2023-08-21T10:42:56;1.35;;;0.55;;
24357;SDS011;13668;52.154;5.580;2023-08-21T10:45:22;1.05;;;0.60;;
24357;SDS011;13668;52.154;5.580;2023-08-21T10:47:48;0.73;;;0.50;;
24357;SDS011;13668;52.154;5.580;2023-08-21T10:50:15;1.10;;;0.50;;
24357;SDS011;13668;52.154;5.580;2023-08-21T10:52:42;0.60;;;0.40;;
24357;SDS011;13668;52.154;5.580;2023-08-21T10:55:12;3.35;;;0.73;;
24357;SDS011;13668;52.154;5.580;2023-08-21T10:57:39;1.35;;;0.50;;
24357;SDS011;13668;52.154;5.580;2023-08-21T11:00:09;2.35;;;0.52;;
24357;SDS011;13668;52.154;5.580;2023-08-21T11:02:36;0.85;;;0.45;;
24357;SDS011;13668;52.154;5.580;2023-08-21T11:05:03;1.38;;;0.50;;
24357;SDS011;13668;52.154;5.580;2023-08-21T11:07:29;3.08;;;0.60;;
24357;SDS011;13668;52.154;5.580;2023-08-21T11:09:56;1.65;;;0.80;;
24357;SDS011;13668;52.154;5.580;2023-08-21T11:12:23;0.70;;;0.45;;
24357;SDS011;13668;52.154;5.580;2023-08-21T11:14:49;3.17;;;0.98;;
24357;SDS011;13668;52.154;5.580;2023-08-21T11:17:15;1.40;;;0.80;;
24357;SDS011;13668;52.154;5.580;2023-08-21T11:19:43;1.92;;;0.52;;
24357;SDS011;13668;52.154;5.580;2023-08-21T11:22:10;0.60;;;0.50;;
24357;SDS011;13668;52.154;5.580;2023-08-21T11:24:46;1.98;;;0.60;;
24357;SDS011;13668;52.154;5.580;2023-08-21T11:27:15;2.35;;;0.70;;
24357;SDS011;13668;52.154;5.580;2023-08-21T11:32:08;2.28;;;0.80;;
24357;SDS011;13668;52.154;5.580;2023-08-21T11:34:34;1.33;;;0.50;;
24357;SDS011;13668;52.154;5.580;2023-08-21T11:37:00;1.45;;;0.70;;
24357;SDS011;13668;52.154;5.580;2023-08-21T11:39:26;2.65;;;0.68;;
24357;SDS011;13668;52.154;5.580;2023-08-21T11:41:57;0.77;;;0.60;;
24357;SDS011;13668;52.154;5.580;2023-08-21T11:44:24;1.02;;;0.40;;
24357;SDS011;13668;52.154;5.580;2023-08-21T11:46:51;2.20;;;0.57;;
24357;SDS011;13668;52.154;5.580;2023-08-21T11:49:20;0.65;;;0.40;;
24357;SDS011;13668;52.154;5.580;2023-08-21T11:51:48;1.20;;;0.30;;
24357;SDS011;13668;52.154;5.580;2023-08-21T11:54:14;1.58;;;0.68;;
24357;SDS011;13668;52.154;5.580;2023-08-21T11:56:43;0.35;;;0.30;;
24357;SDS011;13668;52.154;5.580;2023-08-21T11:59:09;0.43;;;0.43;;
24357;SDS011;13668;52.154;5.580;2023-08-21T12:01:35;2.10;;;0.65;;
24357;SDS011;13668;52.154;5.580;2023-08-21T12:04:01;0.63;;;0.63;;
24357;SDS011;13668;52.154;5.580;2023-08-21T12:06:27;3.50;;;0.70;;
24357;SDS011;13668;52.154;5.580;2023-08-21T12:08:57;0.90;;;0.40;;
24357;SDS011;13668;52.154;5.580;2023-08-21T12:11:23;0.70;;;0.47;;
24357;SDS011;13668;52.154;5.580;2023-08-21T12:13:50;0.30;;;0.30;;
24357;SDS011;13668;52.154;5.580;2023-08-21T12:16:17;1.08;;;0.75;;
24357;SDS011;13668;52.154;5.580;2023-08-21T12:18:44;0.90;;;0.80;;
24357;SDS011;13668;52.154;5.580;2023-08-21T12:21:10;2.35;;;0.50;;
24357;SDS011;13668;52.154;5.580;2023-08-21T12:23:42;0.82;;;0.40;;
24357;SDS011;13668;52.154;5.580;2023-08-21T12:26:08;1.98;;;0.30;;
24357;SDS011;13668;52.154;5.580;2023-08-21T12:28:34;3.30;;;0.63;;
24357;SDS011;13668;52.154;5.580;2023-08-21T12:31:00;0.30;;;0.30;;
24357;SDS011;13668;52.154;5.580;2023-08-21T12:33:26;0.10;;;0.10;;
24357;SDS011;13668;52.154;5.580;2023-08-21T12:35:52;1.88;;;0.50;;
24357;SDS011;13668;52.154;5.580;2023-08-21T12:38:18;0.95;;;0.50;;
24357;SDS011;13668;52.154;5.580;2023-08-21T12:40:45;3.15;;;0.30;;
24357;SDS011;13668;52.154;5.580;2023-08-21T12:43:11;3.50;;;0.80;;
24357;SDS011;13668;52.154;5.580;2023-08-21T12:45:37;0.47;;;0.10;;
24357;SDS011;13668;52.154;5.580;2023-08-21T12:48:03;0.68;;;0.30;;
24357;SDS011;13668;52.154;5.580;2023-08-21T12:50:29;0.20;;;0.15;;
24357;SDS011;13668;52.154;5.580;2023-08-21T12:52:55;1.65;;;0.32;;
24357;SDS011;13668;52.154;5.580;2023-08-21T12:55:21;1.85;;;0.47;;
24357;SDS011;13668;52.154;5.580;2023-08-21T12:57:47;0.65;;;0.32;;
24357;SDS011;13668;52.154;5.580;2023-08-21T13:00:13;3.05;;;0.60;;
24357;SDS011;13668;52.154;5.580;2023-08-21T13:02:40;0.95;;;0.30;;
24357;SDS011;13668;52.154;5.580;2023-08-21T13:05:06;0.50;;;0.43;;
24357;SDS011;13668;52.154;5.580;2023-08-21T13:07:32;1.15;;;0.30;;
24357;SDS011;13668;52.154;5.580;2023-08-21T13:09:58;0.50;;;0.30;;
24357;SDS011;13668;52.154;5.580;2023-08-21T13:12:27;1.42;;;0.38;;
24357;SDS011;13668;52.154;5.580;2023-08-21T13:14:53;1.33;;;0.30;;
24357;SDS011;13668;52.154;5.580;2023-08-21T13:17:19;2.08;;;0.65;;
24357;SDS011;13668;52.154;5.580;2023-08-21T13:19:45;0.85;;;0.20;;
24357;SDS011;13668;52.154;5.580;2023-08-21T13:22:11;1.80;;;0.47;;
24357;SDS011;13668;52.154;5.580;2023-08-21T13:24:37;1.15;;;0.45;;
24357;SDS011;13668;52.154;5.580;2023-08-21T13:27:03;1.55;;;0.40;;
24357;SDS011;13668;52.154;5.580;2023-08-21T13:29:29;1.30;;;0.60;;
24357;SDS011;13668;52.154;5.580;2023-08-21T13:31:55;0.40;;;0.30;;
24357;SDS011;13668;52.154;5.580;2023-08-21T13:34:21;1.60;;;0.32;;
24357;SDS011;13668;52.154;5.580;2023-08-21T13:36:47;0.82;;;0.20;;
24357;SDS011;13668;52.154;5.580;2023-08-21T13:39:13;1.05;;;0.30;;
24357;SDS011;13668;52.154;5.580;2023-08-21T13:41:40;0.73;;;0.40;;
24357;SDS011;13668;52.154;5.580;2023-08-21T13:44:06;0.30;;;0.30;;
24357;SDS011;13668;52.154;5.580;2023-08-21T13:46:33;0.50;;;0.50;;
24357;SDS011;13668;52.154;5.580;2023-08-21T13:48:59;0.52;;;0.52;;
24357;SDS011;13668;52.154;5.580;2023-08-21T13:51:25;0.40;;;0.38;;
24357;SDS011;13668;52.154;5.580;2023-08-21T13:53:51;1.95;;;0.90;;
24357;SDS011;13668;52.154;5.580;2023-08-21T13:56:17;1.52;;;0.60;;
24357;SDS011;13668;52.154;5.580;2023-08-21T13:58:43;1.00;;;0.77;;
24357;SDS011;13668;52.154;5.580;2023-08-21T14:01:10;1.45;;;0.95;;
24357;SDS011;13668;52.154;5.580;2023-08-21T14:03:38;0.40;;;0.40;;
24357;SDS011;13668;52.154;5.580;2023-08-21T14:06:04;1.50;;;0.68;;
24357;SDS011;13668;52.154;5.580;2023-08-21T14:08:30;0.85;;;0.30;;
24357;SDS011;13668;52.154;5.580;2023-08-21T14:10:56;1.85;;;0.70;;
24357;SDS011;13668;52.154;5.580;2023-08-21T14:13:23;0.93;;;0.50;;
24357;SDS011;13668;52.154;5.580;2023-08-21T14:15:49;1.50;;;0.57;;
24357;SDS011;13668;52.154;5.580;2023-08-21T14:18:15;0.90;;;0.80;;
24357;SDS011;13668;52.154;5.580;2023-08-21T14:20:40;0.77;;;0.40;;
24357;SDS011;13668;52.154;5.580;2023-08-21T14:23:06;0.60;;;0.60;;
24357;SDS011;13668;52.154;5.580;2023-08-21T14:25:32;0.70;;;0.38;;
24357;SDS011;13668;52.154;5.580;2023-08-21T14:27:58;1.48;;;0.60;;
24357;SDS011;13668;52.154;5.580;2023-08-21T14:30:25;1.00;;;0.43;;
24357;SDS011;13668;52.154;5.580;2023-08-21T14:32:50;0.73;;;0.22;;
24357;SDS011;13668;52.154;5.580;2023-08-21T14:35:16;1.73;;;0.50;;
24357;SDS011;13668;52.154;5.580;2023-08-21T14:37:44;1.42;;;0.50;;
24357;SDS011;13668;52.154;5.580;2023-08-21T14:40:10;1.35;;;0.63;;
24357;SDS011;13668;52.154;5.580;2023-08-21T14:42:36;2.00;;;0.60;;
24357;SDS011;13668;52.154;5.580;2023-08-21T14:45:02;0.47;;;0.30;;
24357;SDS011;13668;52.154;5.580;2023-08-21T14:47:28;0.28;;;0.28;;
24357;SDS011;13668;52.154;5.580;2023-08-21T14:49:54;2.15;;;0.57;;
24357;SDS011;13668;52.154;5.580;2023-08-21T14:52:20;1.75;;;0.50;;